Time;durP1;ratioP1;P1;durP2;ratioP2;P2;SDS_P1;SDS_P2;PMS_P1;PMS_P2;Temp;Humidity;BMP_temperature;BMP_pressure;BME280_temperature;BME280_humidity;BME280_pressure;Samples;Min_cycle;Max_cycle;Signal;HPM_P1;HPM_P2
2021/03/22 00:00:37;;;;;;;26.65;4.40;;;4.50;87.10;;;;;;5049202;28;20505;-68
2021/03/22 00:03:05;;;;;;;28.25;4.07;;;4.50;86.90;;;;;;5051028;28;20052;-68
2021/03/22 00:05:31;;;;;;;27.90;3.28;;;4.50;86.90;;;;;;5050778;28;20366;-68
2021/03/22 00:07:56;;;;;;;30.75;4.60;;;4.50;86.70;;;;;;5050721;28;20032;-68
2021/03/22 00:10:25;;;;;;;34.53;5.10;;;4.50;86.80;;;;;;5050275;28;20025;-67
2021/03/22 00:12:52;;;;;;;20.77;3.60;;;4.50;86.70;;;;;;5049970;28;20032;-68
2021/03/22 00:15:18;;;;;;;26.95;5.22;;;4.50;86.70;;;;;;5050539;28;20052;-67
2021/03/22 00:17:44;;;;;;;24.65;4.38;;;4.50;86.90;;;;;;5048043;28;20032;-67
2021/03/22 00:20:12;;;;;;;27.85;5.13;;;4.40;86.90;;;;;;5031654;28;20056;-67
2021/03/22 00:22:38;;;;;;;29.25;4.63;;;4.40;87.30;;;;;;5047662;28;20021;-68
2021/03/22 00:25:05;;;;;;;25.58;6.43;;;4.40;87.30;;;;;;5050723;28;20044;-68
2021/03/22 00:27:31;;;;;;;28.90;4.95;;;4.40;87.30;;;;;;5049877;28;20059;-68
2021/03/22 00:29:56;;;;;;;21.60;4.50;;;4.40;87.20;;;;;;5048564;28;20064;-67
2021/03/22 00:32:22;;;;;;;25.33;3.88;;;4.40;87.20;;;;;;5049594;28;20025;-68
2021/03/22 00:34:48;;;;;;;27.20;4.40;;;4.40;87.20;;;;;;5049182;28;20082;-68
2021/03/22 00:37:14;;;;;;;22.00;4.20;;;4.40;87.20;;;;;;5049884;28;20529;-68
2021/03/22 00:39:40;;;;;;;27.35;4.70;;;4.30;87.60;;;;;;5049723;28;20025;-68
2021/03/22 00:42:06;;;;;;;24.52;3.80;;;4.30;87.50;;;;;;5050355;28;20178;-68
2021/03/22 00:44:32;;;;;;;26.48;4.05;;;4.30;87.50;;;;;;5048241;28;20032;-67
2021/03/22 00:46:58;;;;;;;21.45;4.90;;;4.30;87.60;;;;;;5048904;28;20021;-68
2021/03/22 00:49:23;;;;;;;29.88;4.05;;;4.40;87.50;;;;;;5047408;28;20064;-67
2021/03/22 00:51:49;;;;;;;31.20;4.38;;;4.30;87.60;;;;;;5049351;28;20079;-67
2021/03/22 00:54:15;;;;;;;21.30;4.35;;;4.30;87.70;;;;;;5049491;28;20122;-68
2021/03/22 00:56:41;;;;;;;26.45;4.03;;;4.30;87.50;;;;;;5049269;28;20515;-68
2021/03/22 00:59:06;;;;;;;23.55;3.50;;;4.30;87.60;;;;;;5049809;28;20108;-68
2021/03/22 01:01:32;;;;;;;26.92;4.13;;;4.30;87.50;;;;;;5048852;28;20028;-67
2021/03/22 01:03:58;;;;;;;23.52;4.05;;;4.30;87.60;;;;;;5048592;28;20486;-67
2021/03/22 01:06:24;;;;;;;30.60;4.53;;;4.30;87.80;;;;;;5048610;28;20063;-67
2021/03/22 01:08:50;;;;;;;24.60;4.63;;;4.20;87.60;;;;;;5049022;28;20044;-68
2021/03/22 01:11:19;;;;;;;26.63;4.85;;;4.20;87.90;;;;;;5049541;28;20033;-68
2021/03/22 01:13:48;;;;;;;29.00;4.50;;;4.20;87.90;;;;;;5048936;28;20037;-68
2021/03/22 01:16:14;;;;;;;21.83;3.65;;;4.20;87.90;;;;;;5049307;28;20048;-68
2021/03/22 01:18:44;;;;;;;21.20;3.83;;;4.30;88.00;;;;;;5029870;28;20099;-67
2021/03/22 01:21:18;;;;;;;15.73;3.55;;;4.20;87.90;;;;;;5046723;28;20103;-68
2021/03/22 01:23:44;;;;;;;23.85;5.40;;;4.20;88.00;;;;;;5048559;28;20028;-68
2021/03/22 01:26:15;;;;;;;30.15;4.00;;;4.20;88.50;;;;;;5048988;28;20109;-68
2021/03/22 01:28:41;;;;;;;23.25;4.00;;;4.20;88.10;;;;;;5046504;28;20029;-68
2021/03/22 01:31:07;;;;;;;21.17;4.68;;;4.20;88.30;;;;;;5048190;28;20025;-67
2021/03/22 01:33:36;;;;;;;26.40;4.78;;;4.20;88.20;;;;;;5049476;28;20025;-67
2021/03/22 01:36:16;;;;;;;21.50;4.05;;;4.20;88.30;;;;;;5049108;28;20502;-68
2021/03/22 01:38:43;;;;;;;20.90;3.72;;;4.10;88.40;;;;;;5048026;28;20494;-68
2021/03/22 01:41:08;;;;;;;30.70;5.00;;;4.20;88.40;;;;;;5049630;28;20104;-68
2021/03/22 01:43:43;;;;;;;27.00;4.03;;;4.10;88.50;;;;;;5048644;28;20159;-69
2021/03/22 01:46:09;;;;;;;27.70;4.70;;;4.10;88.60;;;;;;5048112;28;20238;-68
2021/03/22 01:48:38;;;;;;;29.38;4.68;;;4.10;88.70;;;;;;5048615;28;20056;-67
2021/03/22 01:51:05;;;;;;;25.40;3.80;;;4.10;88.70;;;;;;5048205;28;20626;-66
2021/03/22 01:53:35;;;;;;;28.65;4.10;;;4.10;88.80;;;;;;5048938;28;20356;-68
2021/03/22 01:56:12;;;;;;;20.60;3.40;;;4.10;89.00;;;;;;5048789;28;20029;-68
2021/03/22 01:58:39;;;;;;;29.80;4.10;;;4.10;89.10;;;;;;5047786;28;20025;-67
2021/03/22 02:01:04;;;;;;;33.42;5.15;;;4.10;89.10;;;;;;5049050;28;20486;-67
2021/03/22 02:03:30;;;;;;;29.75;4.50;;;4.10;89.40;;;;;;5048668;28;20048;-67
2021/03/22 02:05:56;;;;;;;28.02;4.20;;;4.10;89.60;;;;;;5049235;28;20036;-68
2021/03/22 02:08:29;;;;;;;26.35;4.05;;;4.10;89.40;;;;;;5045373;28;20135;-68
2021/03/22 02:10:55;;;;;;;28.23;4.13;;;4.10;89.20;;;;;;5047595;28;20036;-67
2021/03/22 02:13:41;;;;;;;25.55;3.97;;;4.10;89.20;;;;;;5046513;28;20029;-68
2021/03/22 02:16:15;;;;;;;24.05;4.80;;;4.10;89.10;;;;;;5048379;28;20063;-67
2021/03/22 02:18:59;;;;;;;27.13;6.90;;;4.10;89.30;;;;;;5048011;28;20364;-68
2021/03/22 02:21:31;;;;;;;25.30;3.80;;;4.10;89.70;;;;;;5048057;28;20048;-67
2021/03/22 02:24:22;;;;;;;24.33;3.88;;;4.00;89.70;;;;;;5048388;28;20021;-67
2021/03/22 02:27:00;;;;;;;24.48;4.55;;;4.00;90.00;;;;;;5046448;28;20060;-67
2021/03/22 02:29:44;;;;;;;30.67;3.78;;;4.00;89.80;;;;;;5045913;28;20944;-67
2021/03/22 02:32:10;;;;;;;27.23;4.45;;;4.00;89.80;;;;;;5048610;28;20041;-68
2021/03/22 02:34:41;;;;;;;23.95;4.00;;;4.00;89.80;;;;;;5047340;28;20507;-67
2021/03/22 02:37:22;;;;;;;31.52;4.45;;;4.00;90.00;;;;;;5046646;28;20112;-68
2021/03/22 02:40:13;;;;;;;26.30;4.55;;;4.00;90.10;;;;;;5046484;28;20030;-67
2021/03/22 02:42:43;;;;;;;26.20;4.13;;;4.00;90.10;;;;;;5047594;28;20121;-68
2021/03/22 02:45:10;;;;;;;21.48;4.70;;;3.90;90.20;;;;;;5052071;28;20025;-68
2021/03/22 02:47:38;;;;;;;22.67;3.95;;;3.90;90.20;;;;;;5051882;28;20123;-67
2021/03/22 02:50:15;;;;;;;30.75;5.32;;;3.90;90.10;;;;;;5051338;28;20037;-68
2021/03/22 02:53:18;;;;;;;13.25;3.42;;;3.90;90.30;;;;;;5051677;28;20029;-68
2021/03/22 02:55:59;;;;;;;24.52;4.07;;;3.90;90.60;;;;;;5050741;28;20025;-68
2021/03/22 02:58:32;;;;;;;27.30;3.95;;;3.90;90.20;;;;;;5051088;28;20037;-68
2021/03/22 03:01:19;;;;;;;31.80;4.50;;;3.90;90.20;;;;;;5051335;28;20029;-68
2021/03/22 03:03:51;;;;;;;28.50;4.40;;;3.80;90.30;;;;;;5051419;28;20390;-68
2021/03/22 03:06:18;;;;;;;18.50;4.32;;;3.90;90.40;;;;;;5051088;28;20521;-68
2021/03/22 03:08:44;;;;;;;24.52;4.03;;;3.90;90.30;;;;;;5050593;28;20044;-67
2021/03/22 03:11:11;;;;;;;26.83;4.40;;;3.90;90.30;;;;;;5051623;28;20031;-68
2021/03/22 03:13:37;;;;;;;24.88;4.35;;;3.90;90.20;;;;;;5049501;28;20036;-69
2021/03/22 03:16:03;;;;;;;22.35;4.00;;;3.80;90.40;;;;;;5052161;28;20037;-67
2021/03/22 03:18:30;;;;;;;18.42;4.03;;;3.80;90.50;;;;;;5051377;28;20021;-67
2021/03/22 03:20:58;;;;;;;20.70;4.97;;;3.80;90.50;;;;;;5050831;28;20045;-68
2021/03/22 03:23:26;;;;;;;26.48;4.25;;;3.80;90.50;;;;;;5049054;28;20098;-67
2021/03/22 03:25:52;;;;;;;21.63;4.57;;;3.80;90.60;;;;;;5033628;28;20386;-67
2021/03/22 03:28:18;;;;;;;22.85;4.40;;;3.80;90.50;;;;;;5050531;28;20108;-69
2021/03/22 03:30:43;;;;;;;27.67;4.78;;;3.80;90.60;;;;;;5050872;28;20033;-68
2021/03/22 03:33:12;;;;;;;31.85;6.47;;;3.80;90.90;;;;;;5051900;28;20025;-68
2021/03/22 03:35:40;;;;;;;29.88;4.30;;;3.80;90.70;;;;;;5051388;28;20032;-69
2021/03/22 03:38:07;;;;;;;24.05;4.20;;;3.80;90.80;;;;;;5050832;28;20060;-67
2021/03/22 03:40:51;;;;;;;24.02;4.03;;;3.70;90.90;;;;;;5050736;28;20116;-68
2021/03/22 03:43:17;;;;;;;29.92;5.40;;;3.70;91.10;;;;;;5051187;28;20037;-67
2021/03/22 03:45:45;;;;;;;25.77;4.95;;;3.70;91.10;;;;;;5050770;28;20079;-68
2021/03/22 03:48:18;;;;;;;28.63;4.05;;;3.70;91.10;;;;;;5050168;28;20033;-69
2021/03/22 03:50:43;;;;;;;22.70;4.38;;;3.70;91.20;;;;;;5032111;28;20118;-68
2021/03/22 03:53:11;;;;;;;24.73;3.67;;;3.70;91.20;;;;;;5050950;28;20056;-68
2021/03/22 03:55:37;;;;;;;29.90;4.50;;;3.60;91.10;;;;;;5049845;28;20052;-68
2021/03/22 03:58:03;;;;;;;31.65;4.28;;;3.60;91.20;;;;;;5050598;28;20303;-69
2021/03/22 04:00:35;;;;;;;29.00;3.90;;;3.60;91.40;;;;;;5049932;28;20033;-68
2021/03/22 04:03:45;;;;;;;32.70;4.10;;;3.60;91.40;;;;;;5050091;28;20033;-69
2021/03/22 04:06:17;;;;;;;25.27;3.85;;;3.60;91.40;;;;;;5047905;28;20415;-68
2021/03/22 04:08:46;;;;;;;29.10;4.38;;;3.60;91.50;;;;;;5048347;28;20021;-67
2021/03/22 04:11:16;;;;;;;28.42;4.85;;;3.60;91.50;;;;;;5051140;28;20037;-68
2021/03/22 04:13:45;;;;;;;30.53;4.47;;;3.60;91.50;;;;;;5048252;28;20052;-68
2021/03/22 04:16:14;;;;;;;32.60;4.55;;;3.60;91.50;;;;;;5049463;28;20037;-68
2021/03/22 04:18:40;;;;;;;27.42;4.38;;;3.60;91.60;;;;;;5049739;28;20032;-68
2021/03/22 04:21:09;;;;;;;35.00;6.07;;;3.60;91.60;;;;;;5049591;28;20029;-67
2021/03/22 04:23:35;;;;;;;18.25;3.55;;;3.60;91.60;;;;;;5050141;28;20029;-68
2021/03/22 04:26:03;;;;;;;28.63;4.80;;;3.60;91.70;;;;;;5050541;28;20100;-68
2021/03/22 04:28:30;;;;;;;29.02;4.82;;;3.60;91.80;;;;;;5045636;28;20029;-68
2021/03/22 04:30:56;;;;;;;29.02;4.32;;;3.60;92.00;;;;;;5049847;28;20025;-67
2021/03/22 04:33:22;;;;;;;26.35;4.18;;;3.60;92.00;;;;;;5050813;28;20504;-67
2021/03/22 04:35:47;;;;;;;29.73;4.93;;;3.60;92.20;;;;;;5049508;28;20031;-67
2021/03/22 04:38:13;;;;;;;35.45;5.55;;;3.60;92.20;;;;;;5049556;28;20356;-68
2021/03/22 04:40:39;;;;;;;27.52;4.57;;;3.60;92.10;;;;;;5049733;28;20040;-68
2021/03/22 04:43:05;;;;;;;36.22;5.78;;;3.60;92.20;;;;;;5031550;28;20059;-68
2021/03/22 04:45:31;;;;;;;29.00;5.55;;;3.60;92.20;;;;;;5049755;28;20538;-68
2021/03/22 04:47:57;;;;;;;24.38;4.63;;;3.70;92.30;;;;;;5046821;28;20505;-68
2021/03/22 04:50:25;;;;;;;33.22;4.93;;;3.60;92.30;;;;;;5049107;28;20453;-68
2021/03/22 04:52:52;;;;;;;24.52;5.28;;;3.70;92.30;;;;;;5049249;28;20033;-69
2021/03/22 04:55:21;;;;;;;23.67;4.95;;;3.70;92.30;;;;;;5050012;28;20566;-68
2021/03/22 04:57:47;;;;;;;25.17;4.88;;;3.70;92.20;;;;;;5049222;28;20107;-69
2021/03/22 05:00:21;;;;;;;30.70;5.47;;;3.70;92.30;;;;;;5048590;28;20040;-68
2021/03/22 05:02:47;;;;;;;25.70;6.07;;;3.80;92.30;;;;;;5047419;28;20495;-69
2021/03/22 05:05:12;;;;;;;27.85;5.97;;;3.80;92.20;;;;;;5031393;28;20021;-68
2021/03/22 05:07:38;;;;;;;23.80;5.45;;;3.80;92.20;;;;;;5049437;28;20029;-68
2021/03/22 05:10:07;;;;;;;43.22;5.97;;;3.90;92.10;;;;;;5048735;28;20039;-68
2021/03/22 05:12:33;;;;;;;33.95;4.95;;;3.90;92.20;;;;;;5049136;28;20044;-67
2021/03/22 05:14:59;;;;;;;25.45;5.70;;;3.90;92.30;;;;;;5048545;28;20033;-68
2021/03/22 05:17:25;;;;;;;27.02;5.75;;;3.90;92.30;;;;;;5048983;28;20410;-68
2021/03/22 05:19:51;;;;;;;23.75;4.70;;;3.90;92.30;;;;;;5048007;28;20040;-67
2021/03/22 05:22:19;;;;;;;24.10;5.32;;;4.00;92.30;;;;;;5049262;28;20119;-68
2021/03/22 05:24:45;;;;;;;25.35;5.28;;;4.00;92.30;;;;;;5048042;28;20559;-68
2021/03/22 05:27:11;;;;;;;24.33;5.60;;;4.00;92.40;;;;;;5048775;28;20035;-68
2021/03/22 05:29:36;;;;;;;23.60;4.88;;;4.00;92.10;;;;;;5049506;28;20033;-68
2021/03/22 05:32:03;;;;;;;24.23;5.38;;;4.00;92.10;;;;;;5049557;28;20033;-67
2021/03/22 05:34:29;;;;;;;22.25;5.63;;;4.10;92.10;;;;;;5048663;28;20033;-69
2021/03/22 05:36:54;;;;;;;27.95;6.43;;;4.10;92.10;;;;;;5047372;28;20095;-68
2021/03/22 05:39:21;;;;;;;20.15;4.97;;;4.10;92.10;;;;;;5030543;28;20025;-67
2021/03/22 05:42:31;;;;;;;29.35;5.75;;;4.10;92.00;;;;;;5049383;28;20036;-68
2021/03/22 05:45:17;;;;;;;25.60;5.83;;;4.20;91.90;;;;;;4966911;28;20534;-68
2021/03/22 05:48:06;;;;;;;20.38;6.60;;;4.10;91.70;;;;;;5048832;28;20044;-68
2021/03/22 05:50:40;;;;;;;;;;;4.10;91.70;;;;;;4996646;28;20037;-69
2021/03/22 05:53:26;;;;;;;26.15;6.22;;;4.10;91.80;;;;;;5046787;28;20367;-68
2021/03/22 05:55:58;;;;;;;20.33;5.13;;;4.10;91.70;;;;;;5047121;28;20051;-70
2021/03/22 05:58:57;;;;;;;16.63;5.70;;;4.20;91.70;;;;;;5046546;28;20116;-67
2021/03/22 06:01:45;;;;;;;19.40;5.80;;;4.20;91.70;;;;;;5045361;28;20029;-67
2021/03/22 06:04:26;;;;;;;22.55;5.72;;;4.20;91.70;;;;;;5049242;28;20211;-66
2021/03/22 06:06:51;;;;;;;;;;;4.20;91.60;;;;;;5048265;28;20108;-68
2021/03/22 06:09:31;;;;;;;24.48;5.88;;;4.20;91.50;;;;;;5047729;28;20051;-69
2021/03/22 06:12:02;;;;;;;23.33;6.28;;;4.20;91.50;;;;;;5031294;28;20032;-69
2021/03/22 06:14:37;;;;;;;22.73;6.40;;;4.20;91.40;;;;;;5048797;28;20389;-68
2021/03/22 06:17:24;;;;;;;32.67;7.40;;;4.20;91.60;;;;;;5048155;28;20097;-69
2021/03/22 06:19:55;;;;;;;23.65;7.07;;;4.20;91.60;;;;;;5016355;28;20124;-69
2021/03/22 06:22:31;;;;;;;23.35;6.43;;;4.20;91.60;;;;;;5047967;28;20503;-69
2021/03/22 06:25:13;;;;;;;29.42;6.47;;;4.20;91.50;;;;;;5047079;28;20417;-70
2021/03/22 06:27:39;;;;;;;26.70;6.35;;;4.30;91.50;;;;;;5046975;28;20029;-69
2021/03/22 06:30:05;;;;;;;23.98;6.10;;;4.30;91.50;;;;;;5047537;28;20047;-70
2021/03/22 06:32:42;;;;;;;27.60;6.85;;;4.30;91.30;;;;;;5048345;28;20071;-69
2021/03/22 06:35:19;;;;;;;23.17;7.05;;;4.30;91.40;;;;;;5047357;28;20033;-67
2021/03/22 06:37:45;;;;;;;23.65;5.93;;;4.30;91.40;;;;;;5046600;28;20040;-68
2021/03/22 06:40:26;;;;;;;22.15;5.75;;;4.40;91.40;;;;;;5055214;28;20029;-68
2021/03/22 06:43:09;;;;;;;27.10;6.43;;;4.40;91.40;;;;;;5048748;28;20124;-69
2021/03/22 06:45:47;;;;;;;33.55;7.43;;;4.40;91.20;;;;;;5027805;28;20018;-68
2021/03/22 06:48:28;;;;;;;23.08;6.05;;;4.50;91.00;;;;;;5028230;28;20036;-67
2021/03/22 06:51:16;;;;;;;23.77;6.18;;;4.50;90.90;;;;;;5017130;28;20362;-69
2021/03/22 06:53:45;;;;;;;20.23;6.03;;;4.50;91.00;;;;;;5018276;28;20429;-68
2021/03/22 06:56:30;;;;;;;20.73;6.15;;;4.50;91.00;;;;;;5017285;28;20025;-67
2021/03/22 06:59:12;;;;;;;24.42;6.05;;;4.50;90.70;;;;;;5025607;28;20037;-68
2021/03/22 07:01:39;;;;;;;26.40;6.30;;;4.50;90.60;;;;;;5025289;28;20518;-69
2021/03/22 07:04:32;;;;;;;27.33;6.25;;;4.60;90.60;;;;;;5027007;28;20029;-69
2021/03/22 07:07:14;;;;;;;23.75;6.30;;;4.60;90.60;;;;;;5025117;28;20180;-67
2021/03/22 07:09:52;;;;;;;20.73;6.10;;;4.60;90.60;;;;;;5026686;28;20038;-71
2021/03/22 07:12:24;;;;;;;22.58;5.63;;;4.60;90.60;;;;;;5017979;28;20061;-70
2021/03/22 07:14:50;;;;;;;17.42;6.40;;;4.60;90.50;;;;;;5028585;28;20037;-70
2021/03/22 07:17:23;;;;;;;21.67;5.65;;;4.70;90.40;;;;;;5025176;28;20029;-73
2021/03/22 07:20:12;;;;;;;22.42;7.35;;;4.70;90.30;;;;;;5026229;28;20045;-70
2021/03/22 07:22:38;;;;;;;25.00;6.65;;;4.70;90.10;;;;;;5025494;28;20431;-70
2021/03/22 07:25:04;;;;;;;23.20;6.55;;;4.70;90.20;;;;;;5026725;28;20030;-70
2021/03/22 07:27:39;;;;;;;23.52;6.22;;;4.80;90.30;;;;;;5026944;28;20029;-69
2021/03/22 07:30:21;;;;;;;22.05;6.35;;;4.80;90.10;;;;;;5025253;28;20495;-69
2021/03/22 07:32:59;;;;;;;21.55;6.40;;;4.80;89.60;;;;;;5029687;28;20089;-70
2021/03/22 07:35:44;;;;;;;23.33;6.50;;;4.80;89.30;;;;;;5028279;28;20033;-72
2021/03/22 07:38:27;;;;;;;18.05;5.40;;;4.70;89.20;;;;;;5031190;28;20029;-73
2021/03/22 07:40:59;;;;;;;19.92;6.03;;;4.70;89.30;;;;;;5030206;28;20037;-72
2021/03/22 07:43:56;;;;;;;21.95;5.88;;;4.70;89.70;;;;;;5031924;28;20022;-72
2021/03/22 07:46:49;;;;;;;20.58;5.90;;;4.80;89.80;;;;;;5016780;28;20082;-72
2021/03/22 07:49:26;;;;;;;18.27;5.28;;;4.80;89.60;;;;;;5027251;28;20035;-72
2021/03/22 07:52:09;;;;;;;17.02;5.78;;;4.90;89.40;;;;;;5028866;28;20030;-71
2021/03/22 07:54:54;;;;;;;16.00;6.10;;;4.90;89.20;;;;;;5019644;28;20029;-72
2021/03/22 07:57:35;;;;;;;17.30;5.15;;;5.00;87.90;;;;;;5027169;28;20037;-72
2021/03/22 08:00:22;;;;;;;17.85;5.82;;;5.00;88.60;;;;;;5028936;28;20030;-72
2021/03/22 08:03:03;;;;;;;17.80;5.18;;;5.00;88.60;;;;;;5019326;28;20120;-72
2021/03/22 08:05:52;;;;;;;21.92;6.05;;;5.00;88.80;;;;;;5025815;28;20034;-72
2021/03/22 08:08:29;;;;;;;20.30;5.22;;;5.10;88.20;;;;;;5025382;28;20037;-72
2021/03/22 08:11:06;;;;;;;21.95;5.60;;;5.10;87.90;;;;;;5026617;28;20113;-72
2021/03/22 08:13:48;;;;;;;17.35;4.30;;;5.10;87.90;;;;;;5028763;28;20510;-72
2021/03/22 08:16:52;;;;;;;;;;;5.20;87.60;;;;;;5016012;28;20049;-72
2021/03/22 08:19:30;;;;;;;20.15;5.03;;;5.30;87.50;;;;;;4963567;28;20096;-72
2021/03/22 08:22:22;;;;;;;20.00;4.68;;;5.30;87.70;;;;;;4966047;28;20037;-72
2021/03/22 08:25:17;;;;;;;20.08;5.07;;;5.30;87.00;;;;;;5011624;28;20061;-73
2021/03/22 08:28:09;;;;;;;23.00;5.47;;;5.40;87.50;;;;;;4997962;28;20031;-71
2021/03/22 08:30:52;;;;;;;20.30;5.55;;;5.40;86.70;;;;;;5009849;28;20046;-72
2021/03/22 08:33:33;;;;;;;17.23;4.97;;;5.40;86.60;;;;;;5026687;28;20053;-71
2021/03/22 08:36:05;;;;;;;16.52;5.05;;;5.40;86.80;;;;;;5029179;28;20888;-70
2021/03/22 08:38:42;;;;;;;22.23;5.22;;;5.50;87.00;;;;;;5028049;28;20095;-70
2021/03/22 08:41:39;;;;;;;16.88;4.15;;;5.50;87.30;;;;;;5027434;28;20025;-71
2021/03/22 08:44:17;;;;;;;17.75;4.60;;;5.60;86.50;;;;;;5022988;28;20029;-70
2021/03/22 08:46:57;;;;;;;18.98;4.20;;;5.70;85.40;;;;;;5028773;28;20446;-71
2021/03/22 08:49:44;;;;;;;13.57;4.18;;;5.70;85.00;;;;;;5033284;28;20041;-72
2021/03/22 08:52:21;;;;;;;16.88;4.95;;;5.70;85.50;;;;;;5028944;28;20037;-71
2021/03/22 08:54:46;;;;;;;23.40;4.20;;;5.70;85.40;;;;;;5028024;28;20348;-68
2021/03/22 08:57:24;;;;;;;16.25;4.13;;;5.70;85.10;;;;;;5028921;28;20037;-70
2021/03/22 09:00:11;;;;;;;13.50;5.10;;;5.70;84.60;;;;;;5028740;28;20091;-69
2021/03/22 09:02:37;;;;;;;20.23;5.82;;;5.90;84.40;;;;;;5024424;28;20030;-70
2021/03/22 09:05:23;;;;;;;11.80;4.60;;;5.90;84.80;;;;;;5027597;28;20025;-70
2021/03/22 09:07:49;;;;;;;13.02;4.70;;;6.00;84.40;;;;;;5015682;28;20052;-70
2021/03/22 09:10:36;;;;;;;14.63;4.60;;;6.10;83.90;;;;;;5016354;28;20565;-70
2021/03/22 09:13:15;;;;;;;16.77;4.03;;;6.10;83.20;;;;;;5028278;28;20040;-70
2021/03/22 09:15:56;;;;;;;14.57;4.07;;;6.00;83.20;;;;;;5028399;28;20040;-70
2021/03/22 09:18:22;;;;;;;14.70;4.13;;;6.00;83.20;;;;;;5027785;28;20029;-69
2021/03/22 09:20:54;;;;;;;19.52;4.28;;;6.00;83.00;;;;;;5027932;28;20506;-71
2021/03/22 09:23:31;;;;;;;13.40;4.25;;;6.00;83.10;;;;;;5028344;28;20026;-70
2021/03/22 09:26:01;;;;;;;14.38;4.60;;;6.00;83.40;;;;;;5028687;28;20030;-69
2021/03/22 09:28:27;;;;;;;17.10;4.88;;;6.00;82.70;;;;;;5066900;22;20422;-76
2021/03/22 09:31:17;;;;;;;12.98;4.05;;;6.10;82.50;;;;;;5021059;28;20031;-75
2021/03/22 09:34:24;;;;;;;20.00;4.75;;;6.10;82.50;;;;;;5021235;28;20030;-74
2021/03/22 09:36:50;;;;;;;16.08;4.30;;;6.10;83.00;;;;;;5021651;28;20021;-75
2021/03/22 09:39:19;;;;;;;14.15;3.92;;;6.20;82.50;;;;;;5019951;28;20037;-75
2021/03/22 09:42:12;;;;;;;8.63;3.30;;;6.30;82.00;;;;;;5018646;28;20505;-75
2021/03/22 09:44:58;;;;;;;16.85;3.53;;;6.30;80.90;;;;;;5021040;28;20030;-76
2021/03/22 09:47:42;;;;;;;12.70;3.40;;;6.30;81.40;;;;;;5008632;28;20043;-75
2021/03/22 09:50:33;;;;;;;13.82;3.88;;;6.40;81.00;;;;;;5020048;28;20068;-75
2021/03/22 09:52:59;;;;;;;;;;;6.50;80.50;;;;;;5018408;28;20084;-75
2021/03/22 09:55:25;;;;;;;10.57;3.80;;;6.60;80.70;;;;;;5020051;28;19910;-75
2021/03/22 09:57:51;;;;;;;12.77;2.92;;;6.80;79.60;;;;;;5021506;28;20033;-75
2021/03/22 10:00:34;;;;;;;15.70;3.50;;;6.80;79.60;;;;;;5020139;28;20045;-75
2021/03/22 10:03:19;;;;;;;11.57;3.75;;;6.90;78.70;;;;;;5019781;28;20084;-75
2021/03/22 10:05:47;;;;;;;12.38;4.28;;;7.00;78.50;;;;;;5019773;28;20018;-75
2021/03/22 10:08:31;;;;;;;12.25;3.88;;;7.10;78.00;;;;;;5016356;28;20104;-75
2021/03/22 10:11:01;;;;;;;11.27;3.53;;;7.00;78.00;;;;;;5016878;28;20048;-74
2021/03/22 10:13:34;;;;;;;14.43;3.50;;;7.10;77.70;;;;;;5017527;28;20030;-75
2021/03/22 10:16:10;;;;;;;11.57;4.05;;;7.20;77.50;;;;;;5015151;28;20280;-75
2021/03/22 10:18:36;;;;;;;9.07;2.88;;;7.40;77.20;;;;;;5011126;28;20037;-74
2021/03/22 10:21:14;;;;;;;8.60;2.70;;;7.70;74.60;;;;;;5015985;28;20561;-75
2021/03/22 10:23:50;;;;;;;9.90;2.63;;;7.70;74.80;;;;;;5016444;28;20105;-75
2021/03/22 10:26:42;;;;;;;8.70;3.00;;;7.90;73.60;;;;;;5013347;28;20075;-75
2021/03/22 10:29:20;;;;;;;14.73;3.10;;;8.00;72.70;;;;;;5014971;28;20115;-75
2021/03/22 10:31:59;;;;;;;10.32;3.58;;;8.00;73.60;;;;;;5015266;28;20026;-75
2021/03/22 10:34:47;;;;;;;8.45;3.10;;;8.10;73.60;;;;;;5016908;28;20034;-74
2021/03/22 10:37:25;;;;;;;9.68;3.05;;;8.00;72.70;;;;;;5016846;28;20026;-75
2021/03/22 10:39:57;;;;;;;6.88;2.78;;;7.90;72.50;;;;;;5015706;28;20061;-74
2021/03/22 10:42:43;;;;;;;8.18;2.58;;;7.90;72.80;;;;;;5018109;28;20029;-75
2021/03/22 10:45:16;;;;;;;10.13;3.30;;;7.80;73.50;;;;;;5015901;28;20550;-75
2021/03/22 10:47:42;;;;;;;11.18;3.40;;;7.90;72.20;;;;;;5016737;28;20033;-75
2021/03/22 10:50:32;;;;;;;7.93;3.17;;;7.90;72.80;;;;;;5019410;28;20105;-75
2021/03/22 10:53:11;;;;;;;6.00;2.65;;;8.20;73.30;;;;;;5017714;28;20137;-74
2021/03/22 10:55:42;;;;;;;12.88;3.28;;;8.40;72.10;;;;;;5017620;28;20037;-75
2021/03/22 10:58:18;;;;;;;9.48;3.15;;;8.70;70.70;;;;;;5018556;28;20211;-77
2021/03/22 11:00:46;;;;;;;8.90;3.38;;;9.00;69.50;;;;;;5017459;28;20022;-77
2021/03/22 11:03:24;;;;;;;8.70;2.70;;;9.20;68.60;;;;;;5000711;28;20014;-76
2021/03/22 11:05:54;;;;;;;12.32;3.33;;;9.40;70.10;;;;;;5011132;28;20040;-76
2021/03/22 11:08:21;;;;;;;11.60;2.80;;;9.70;68.80;;;;;;5027963;28;20048;-77
2021/03/22 11:10:47;;;;;;;8.68;2.60;;;10.10;67.90;;;;;;5007790;28;20052;-73
2021/03/22 11:13:22;;;;;;;9.95;3.13;;;10.50;67.40;;;;;;5018926;28;20026;-76
2021/03/22 11:15:49;;;;;;;6.47;2.85;;;10.70;63.00;;;;;;5019006;28;20111;-74
2021/03/22 11:18:18;;;;;;;6.28;2.90;;;11.20;65.80;;;;;;5017923;28;20117;-75
2021/03/22 11:20:47;;;;;;;7.50;2.88;;;11.90;65.60;;;;;;5018598;28;20528;-74
2021/03/22 11:23:43;;;;;;;8.32;3.35;;;13.00;56.80;;;;;;5003151;28;20041;-77
2021/03/22 11:26:26;;;;;;;6.38;2.40;;;13.70;54.80;;;;;;5020218;28;20043;-75
2021/03/22 11:29:18;;;;;;;5.93;2.70;;;14.40;52.00;;;;;;5020670;28;20040;-76
2021/03/22 11:31:47;;;;;;;8.23;2.50;;;14.30;50.70;;;;;;5018887;28;20028;-74
2021/03/22 11:34:20;;;;;;;7.00;3.13;;;14.30;53.80;;;;;;5020037;28;20213;-76
2021/03/22 11:36:46;;;;;;;7.30;2.95;;;14.30;50.30;;;;;;5019363;28;20026;-74
2021/03/22 11:39:19;;;;;;;5.65;2.65;;;13.70;52.00;;;;;;5001881;28;20045;-73
2021/03/22 11:41:53;;;;;;;9.88;3.35;;;13.10;54.30;;;;;;5018342;28;20124;-76
2021/03/22 11:44:23;;;;;;;8.48;2.97;;;12.50;55.50;;;;;;5020244;28;20545;-74
2021/03/22 11:46:54;;;;;;;9.23;3.03;;;11.80;58.00;;;;;;5015794;28;20034;-75
2021/03/22 11:49:32;;;;;;;10.18;2.90;;;11.40;59.90;;;;;;5002895;28;20037;-74
2021/03/22 11:52:00;;;;;;;7.80;3.03;;;11.40;60.80;;;;;;5013732;28;20033;-75
2021/03/22 11:54:26;;;;;;;8.05;2.85;;;11.80;58.80;;;;;;5016716;28;20037;-71
2021/03/22 11:57:03;;;;;;;7.32;3.25;;;11.90;58.20;;;;;;5016498;28;20479;-75
2021/03/22 11:59:28;;;;;;;7.93;2.45;;;11.70;59.30;;;;;;5018600;28;20196;-73
2021/03/22 12:02:12;;;;;;;9.00;2.55;;;11.60;59.00;;;;;;5000741;28;20588;-73
2021/03/22 12:04:49;;;;;;;7.75;2.70;;;11.20;59.30;;;;;;5014780;28;20031;-77
2021/03/22 12:07:31;;;;;;;5.50;2.42;;;10.90;60.50;;;;;;5000621;28;20891;-77
2021/03/22 12:09:57;;;;;;;8.82;2.78;;;10.70;61.50;;;;;;5020191;28;20053;-73
2021/03/22 12:12:22;;;;;;;8.70;3.20;;;10.50;62.90;;;;;;5013223;28;20930;-73
2021/03/22 12:14:48;;;;;;;11.90;3.92;;;10.60;62.90;;;;;;5016458;28;20040;-73
2021/03/22 12:17:21;;;;;;;11.27;3.80;;;10.50;63.30;;;;;;5017895;28;20079;-73
2021/03/22 12:19:48;;;;;;;10.50;3.47;;;10.50;63.90;;;;;;5020034;28;20056;-75
2021/03/22 12:22:20;;;;;;;7.57;3.30;;;10.70;64.80;;;;;;5017847;28;20109;-76
2021/03/22 12:24:46;;;;;;;10.05;2.95;;;11.00;64.70;;;;;;5015355;28;20079;-73
2021/03/22 12:27:18;;;;;;;10.52;3.78;;;11.10;63.10;;;;;;5019777;28;20395;-74
2021/03/22 12:29:44;;;;;;;9.10;3.30;;;10.80;63.60;;;;;;5014873;28;20038;-72
2021/03/22 12:32:28;;;;;;;7.13;3.10;;;10.70;64.30;;;;;;5017658;28;20138;-73
2021/03/22 12:34:54;;;;;;;5.93;3.03;;;10.50;65.90;;;;;;5017105;28;20120;-71
2021/03/22 12:37:30;;;;;;;6.75;2.92;;;10.50;65.70;;;;;;5018895;28;20052;-72
2021/03/22 12:39:56;;;;;;;7.70;3.63;;;10.50;65.70;;;;;;5018157;28;20041;-72
2021/03/22 12:42:25;;;;;;;8.82;3.63;;;10.50;65.80;;;;;;5018774;28;20026;-74
2021/03/22 12:44:51;;;;;;;12.15;3.90;;;10.40;65.70;;;;;;5015269;28;20127;-73
2021/03/22 12:47:45;;;;;;;7.65;2.75;;;10.40;65.80;;;;;;5016187;28;20030;-72
2021/03/22 12:50:22;;;;;;;6.90;3.45;;;10.40;65.10;;;;;;5017549;28;20038;-72
2021/03/22 12:52:50;;;;;;;10.35;3.10;;;10.50;64.70;;;;;;5016563;28;20041;-72
2021/03/22 12:55:17;;;;;;;7.40;2.90;;;10.50;65.20;;;;;;4996484;28;20081;-73
2021/03/22 12:57:42;;;;;;;6.35;2.90;;;10.40;64.60;;;;;;5016060;28;20029;-72
2021/03/22 13:00:11;;;;;;;8.35;2.70;;;10.40;64.20;;;;;;5016986;28;20449;-71
2021/03/22 13:02:36;;;;;;;6.22;2.75;;;10.30;64.20;;;;;;5018977;28;20031;-71
2021/03/22 13:05:12;;;;;;;6.97;2.70;;;10.30;64.50;;;;;;5016340;28;20025;-71
2021/03/22 13:07:38;;;;;;;5.32;2.75;;;10.20;65.10;;;;;;5007033;28;20053;-70
2021/03/22 13:10:04;;;;;;;6.82;2.80;;;10.30;64.50;;;;;;5018095;28;20080;-70
2021/03/22 13:12:33;;;;;;;8.50;3.30;;;10.20;64.60;;;;;;5017056;28;20116;-71
2021/03/22 13:14:59;;;;;;;9.55;3.60;;;10.30;64.70;;;;;;5019158;28;20186;-71
2021/03/22 13:17:35;;;;;;;6.75;2.60;;;10.30;65.30;;;;;;5017034;28;20095;-71
2021/03/22 13:20:05;;;;;;;5.05;2.42;;;10.20;66.10;;;;;;5017630;28;20386;-71